Latest Weather Observations for Yarrawonga

IDN60801

Issued at 8:05 pm EST Saturday 30 August 2014 (issued every 30 minutes, with the page automatically refreshed every 10 minutes)

About weather observations | Map of weather stations | Latest weather observations for NSW | Other Formats
Station Details ID: 081124 Name: YARRAWONGA Lat: -36.03 Lon: 146.03 Height: 128.9 m
Data from the previous 72 hours. | See also: Recent months at Yarrawonga
Date/Time
EST
Temp
°C
App
Temp
°C
Dew
Point
Rel
Hum
%
Delta-T
°C
Wind Press
QNH
hPa
Press
MSL
hPa
Rain
since 9 am
mm
Dir
 
Spd
km/h
Gust
km/h
Spd
kts
Gust
kts
30/08:00pm 8.2 6.4 7.3 94 0.4 ESE 6 6 3 3 1022.5 1022.7 0.0
30/07:30pm 8.9 7.9 7.2 89 0.8 E 2 4 1 2 1022.5 - 0.0
30/07:00pm 10.6 9.3 7.7 82 1.4 E 4 4 2 2 1022.5 1022.7 0.0
30/06:30pm 12.6 12.1 9.2 80 1.7 SSE 2 4 1 2 1022.4 - 0.0
30/06:00pm 14.5 13.7 9.5 72 2.6 SSE 4 4 2 2 1022.3 1022.5 0.0
30/05:30pm 16.3 15.5 9.5 64 3.6 SE 4 6 2 3 1022.3 - 0.0
30/05:00pm 17.9 16.9 9.0 56 4.6 NNW 4 7 2 4 1022.3 1022.5 0.0
30/04:30pm 18.6 17.6 8.8 53 5.1 NNW 4 7 2 4 1022.3 - 0.0
30/04:00pm 18.8 17.7 8.5 51 5.3 NNE 4 7 2 4 1022.5 1022.7 0.0
30/03:30pm 19.0 17.9 8.4 50 5.5 NW 4 7 2 4 1022.7 - 0.0
30/03:00pm 19.1 17.6 8.4 50 5.6 N 6 9 3 5 1022.8 1023.1 0.0
30/02:30pm 18.9 17.5 8.8 52 5.3 N 6 11 3 6 1023.2 - 0.0
30/02:00pm 18.7 17.3 8.9 53 5.1 N 6 13 3 7 1023.5 1023.7 0.0
30/01:30pm 18.0 16.4 8.6 54 4.9 N 7 13 4 7 1023.8 - 0.0
30/01:00pm 17.5 15.2 8.9 57 4.5 N 11 15 6 8 1024.2 1024.4 0.0
30/12:30pm 17.3 15.1 9.5 60 4.1 N 11 17 6 9 1024.9 - 0.0
30/12:00pm 16.3 14.0 9.0 62 3.8 N 11 17 6 9 1025.4 1025.6 0.0
30/11:30am 16.2 14.0 9.4 64 3.5 NNE 11 17 6 9 1026.0 - 0.0
30/11:00am 15.3 12.9 8.8 65 3.3 N 11 17 6 9 1026.4 1026.6 0.0
30/10:30am 14.3 12.0 8.9 70 2.7 N 11 20 6 11 1026.7 - 0.0
30/10:00am 13.3 10.5 8.6 73 2.4 N 13 17 7 9 1026.8 1027.0 0.0
30/09:30am 12.3 9.9 8.6 78 1.9 NNE 11 15 6 8 1026.9 - 0.0
30/09:00am 11.6 8.8 8.6 82 1.5 ENE 13 17 7 9 1026.9 1027.1 0.0
30/08:30am 10.0 8.1 8.9 93 0.5 E 9 13 5 7 1026.9 - 0.0
30/08:00am 8.2 6.4 7.9 98 0.1 E 7 11 4 6 1026.9 1027.1 0.0
30/07:30am 7.0 5.0 6.9 99 0.0 E 7 9 4 5 1026.5 - 0.0
30/07:00am 5.8 3.7 5.7 99 0.0 NE 6 9 3 5 1026.2 1026.4 0.0
30/06:30am 4.7 2.7 4.6 99 0.0 E 4 6 2 3 1025.8 - 0.0
30/06:00am 5.1 3.2 5.0 99 0.0 ESE 4 6 2 3 1025.4 1025.6 0.0
30/05:30am 4.9 2.6 4.8 99 0.0 ESE 6 7 3 4 1025.2 - 0.0
30/05:00am 5.1 2.8 5.0 99 0.0 ESE 6 9 3 5 1025.1 1025.3 0.0
30/04:30am 5.9 3.8 5.8 99 0.0 ESE 6 7 3 4 1025.0 - 0.0
30/04:00am 6.1 4.8 6.0 99 0.0 E 2 6 1 3 1025.0 1025.2 0.0
30/03:30am 4.7 2.4 4.6 99 0.0 ESE 6 7 3 4 1025.0 - 0.0
30/03:00am 3.0 0.7 2.7 98 0.1 ESE 4 7 2 4 1025.2 1025.4 0.0
30/02:30am 3.5 1.3 3.2 98 0.1 E 4 6 2 3 1025.3 - 0.0
30/02:00am 3.0 1.4 2.7 98 0.1 CALM 0 0 0 0 1025.3 1025.5 0.0
30/01:30am 3.3 1.8 3.0 98 0.1 CALM 0 0 0 0 1025.3 - 0.0
30/01:00am 3.2 0.9 2.9 98 0.1 SSE 4 6 2 3 1025.5 1025.7 0.0
30/12:30am 3.5 1.3 3.2 98 0.1 SSE 4 6 2 3 1025.4 - 0.0
30/12:00am 5.0 3.1 4.7 98 0.1 SW 4 4 2 2 1025.5 1025.7 0.0
 
Date/Time
EST
Temp
°C
App
Temp
°C
Dew
Point
Rel
Hum
%
Delta-T
°C
Wind Press
QNH
hPa
Press
MSL
hPa
Rain
since 9 am
mm
Dir
 
Spd
km/h
Gust
km/h
Spd
kts
Gust
kts
29/11:30pm 5.2 4.1 4.9 98 0.1 CALM 0 2 0 1 1025.6 - 0.0
29/11:00pm 4.6 2.6 4.3 98 0.1 S 4 6 2 3 1025.6 1025.8 0.0
29/10:30pm 4.7 2.3 4.4 98 0.1 SSW 6 7 3 4 1025.6 - 0.0
29/10:00pm 5.5 3.7 5.2 98 0.1 S 4 4 2 2 1025.7 1025.9 0.0
29/09:30pm 6.0 4.3 5.7 98 0.1 S 4 4 2 2 1025.8 - 0.0
29/09:00pm 5.7 3.9 5.4 98 0.1 SSW 4 6 2 3 1025.7 1025.9 0.0
29/08:30pm 7.5 6.8 6.8 95 0.3 CALM 0 0 0 0 1025.7 - 0.0
29/08:00pm 8.0 7.2 6.3 89 0.8 CALM 0 0 0 0 1025.7 1025.9 0.0
29/07:30pm 10.2 8.8 7.4 83 1.3 WSW 4 4 2 2 1025.6 - 0.0
29/07:00pm 10.7 9.4 7.6 81 1.5 WSW 4 4 2 2 1025.5 1025.7 0.0
29/06:30pm 11.9 10.8 8.4 79 1.7 W 4 6 2 3 1025.4 - 0.0
29/06:00pm 13.3 11.8 8.4 72 2.4 W 6 7 3 4 1025.3 1025.5 0.0
29/05:30pm 15.6 14.3 9.1 65 3.4 WSW 6 7 3 4 1025.1 - 0.0
29/05:00pm 17.4 15.7 8.3 55 4.7 WSW 7 9 4 5 1025.0 1025.2 0.0
29/04:30pm 18.6 16.7 7.4 48 5.7 SW 7 11 4 6 1024.9 - 0.0
29/04:00pm 19.1 17.3 7.8 48 5.8 SW 7 13 4 7 1025.0 1025.2 0.0
29/03:30pm 18.9 17.0 7.4 47 5.9 SW 7 13 4 7 1025.0 - 0.0
29/03:00pm 19.2 17.7 8.5 50 5.6 SSW 6 9 3 5 1025.3 1025.5 0.0
29/02:30pm 19.1 17.5 8.7 51 5.4 WSW 7 13 4 7 1025.6 - 0.0
29/02:00pm 18.8 17.8 8.7 52 5.3 SW 4 13 2 7 1026.0 1026.2 0.0
29/01:30pm 18.5 17.1 8.7 53 5.1 SW 6 9 3 5 1026.3 - 0.0
29/01:00pm 18.1 17.2 9.2 56 4.7 W 4 11 2 6 1026.6 1026.8 0.0
29/12:30pm 17.1 16.2 9.3 60 4.1 WNW 4 7 2 4 1027.0 - 0.0
29/12:00pm 15.9 14.8 8.4 61 3.8 W 4 7 2 4 1027.6 1027.8 0.0
29/11:30am 17.0 16.5 9.2 60 4.1 SSW 2 7 1 4 1028.1 - 0.0
29/11:00am 15.2 14.1 8.4 64 3.4 W 4 7 2 4 1028.3 1028.5 0.0
29/10:30am 14.5 13.6 9.3 71 2.7 SSE 4 6 2 3 1028.4 - 0.0
29/10:00am 13.6 13.2 9.6 77 2.0 E 2 6 1 3 1028.7 1028.9 0.0
29/09:30am 12.2 11.2 8.9 80 1.7 ENE 4 6 2 3 1028.8 - 0.0
29/09:00am 10.6 9.3 9.2 91 0.7 E 6 7 3 4 1029.0 1029.2 0.0
29/08:30am 8.7 7.1 8.6 99 0.0 E 7 9 4 5 1028.8 - 0.0
29/08:00am 6.9 6.2 6.8 99 0.0 CALM 0 2 0 1 1028.8 1029.0 0.0
29/07:30am 3.0 1.5 2.9 99 0.0 CALM 0 0 0 0 1028.6 - 0.0
29/07:00am 1.1 -0.7 1.0 99 0.0 CALM 0 0 0 0 1028.2 1028.4 0.0
29/06:30am 0.7 -1.2 0.6 99 0.0 CALM 0 0 0 0 1028.0 - 0.0
29/06:00am 0.9 -1.0 0.8 99 0.0 CALM 0 0 0 0 1027.9 1028.1 0.0
29/05:30am 1.4 -0.4 1.3 99 0.0 CALM 0 0 0 0 1027.7 - 0.0
29/05:00am 1.3 -0.9 1.0 98 0.1 ESE 2 4 1 2 1027.6 1027.8 0.0
29/04:30am 1.6 -0.9 1.3 98 0.1 ESE 4 6 2 3 1027.6 - 0.0
29/04:00am 2.3 -0.5 2.0 98 0.1 ENE 6 7 3 4 1027.4 1027.6 0.0
29/03:30am 2.8 0.5 2.5 98 0.1 ENE 4 4 2 2 1027.3 - 0.0
29/03:00am 3.0 1.1 2.7 98 0.1 ENE 2 4 1 2 1027.3 1027.5 0.0
29/02:30am 4.2 2.1 4.1 99 0.0 ENE 4 4 2 2 1027.6 - 0.0
29/02:00am 4.3 1.9 4.2 99 0.0 ENE 6 6 3 3 1027.6 1027.8 0.0
29/01:30am 3.5 1.3 3.2 98 0.1 E 4 6 2 3 1027.9 - 0.0
29/01:00am 3.5 0.9 3.2 98 0.1 E 6 7 3 4 1028.0 1028.2 0.0
29/12:30am 3.3 1.8 3.0 98 0.1 CALM 0 0 0 0 1028.1 - 0.0
29/12:00am 3.0 1.4 2.7 98 0.1 CALM 0 0 0 0 1028.0 1028.2 0.0
 
Date/Time
EST
Temp
°C
App
Temp
°C
Dew
Point
Rel
Hum
%
Delta-T
°C
Wind Press
QNH
hPa
Press
MSL
hPa
Rain
since 9 am
mm
Dir
 
Spd
km/h
Gust
km/h
Spd
kts
Gust
kts
28/11:30pm 4.4 3.1 4.1 98 0.1 CALM 0 0 0 0 1028.1 - 0.0
28/11:00pm 4.0 2.6 3.7 98 0.1 CALM 0 0 0 0 1028.1 1028.3 0.0
28/10:30pm 4.5 3.2 4.2 98 0.1 CALM 0 0 0 0 1028.2 - 0.0
28/10:00pm 4.5 3.2 4.2 98 0.1 CALM 0 0 0 0 1028.3 1028.5 0.0
28/09:30pm 5.5 4.4 5.1 97 0.2 CALM 0 0 0 0 1028.2 - 0.0
28/09:00pm 5.9 4.5 5.3 96 0.3 E 2 4 1 2 1028.0 1028.2 0.0
28/08:30pm 7.2 6.1 6.9 98 0.1 NE 2 6 1 3 1028.0 - 0.0
28/08:00pm 7.5 6.6 6.0 90 0.7 CALM 0 0 0 0 1027.9 1028.1 0.0
28/07:30pm 8.5 7.2 6.1 85 1.1 ESE 2 2 1 1 1027.6 - 0.0
28/07:00pm 9.6 7.9 6.0 78 1.7 ESE 4 4 2 2 1027.6 1027.8 0.0
28/06:30pm 12.0 10.6 7.1 72 2.4 ESE 4 4 2 2 1027.5 - 0.0
28/06:00pm 13.6 12.6 7.2 65 3.1 ESE 2 2 1 1 1027.5 1027.7 0.0
28/05:30pm 16.0 14.9 6.7 54 4.6 ESE 2 4 1 2 1027.3 - 0.0
28/05:00pm 17.0 15.8 7.9 55 4.6 S 4 4 2 2 1027.1 1027.3 0.0
28/04:30pm 17.8 16.2 6.3 47 5.7 S 4 4 2 2 1026.9 - 0.0
28/04:00pm 18.3 16.7 6.2 45 6.0 NNW 4 7 2 4 1026.8 1027.0 0.0
28/03:30pm 18.4 16.9 6.9 47 5.8 NNE 4 9 2 5 1026.9 - 0.0
28/03:00pm 18.2 17.3 6.1 45 6.0 CALM 0 4 0 2 1027.0 1027.2 0.0
28/02:30pm 18.0 15.9 5.9 45 6.0 NNW 6 11 3 6 1027.2 - 0.0
28/02:00pm 18.1 16.6 6.9 48 5.6 NNW 4 9 2 5 1027.4 1027.6 0.0
28/01:30pm 18.0 16.6 7.1 49 5.5 W 4 11 2 6 1027.6 - 0.0
28/01:00pm 17.2 15.2 6.1 48 5.4 NNW 6 15 3 8 1028.1 1028.3 0.0
28/12:30pm 17.3 15.5 7.1 51 5.1 NNE 6 13 3 7 1028.5 - 0.0
28/12:00pm 16.4 14.4 7.1 54 4.6 N 7 13 4 7 1028.9 1029.1 0.0
28/11:30am 15.8 14.0 7.8 59 4.0 NE 7 13 4 7 1029.2 - 0.0
28/11:00am 14.6 12.6 6.9 60 3.8 N 7 13 4 7 1029.4 1029.7 0.0
28/10:30am 14.1 12.0 6.7 61 3.6 NNE 7 11 4 6 1029.6 - 0.0
28/10:00am 13.4 11.5 6.5 63 3.3 NNE 6 9 3 5 1029.8 1030.1 0.0
28/09:30am 12.5 10.8 7.6 72 2.4 NE 6 7 3 4 1029.9 - 0.0
28/09:00am 11.8 10.6 8.1 78 1.8 ENE 4 9 2 5 1029.7 1030.0 0.0
28/08:30am 9.9 8.2 7.7 86 1.1 E 6 7 3 4 1029.6 - 0.0
28/08:00am 8.1 6.3 7.0 93 0.5 E 6 9 3 5 1029.4 1029.7 0.0
28/07:30am 6.1 3.8 5.8 98 0.1 E 7 9 4 5 1029.2 - 0.0
28/07:00am 5.4 3.0 5.1 98 0.1 E 7 11 4 6 1028.8 1029.0 0.0
28/06:30am 6.1 3.8 5.8 98 0.1 ENE 7 11 4 6 1028.5 - 0.0
28/06:00am 4.2 0.8 3.9 98 0.1 E 11 15 6 8 1028.1 1028.3 0.0
28/05:30am 4.6 1.3 4.3 98 0.1 E 11 15 6 8 1027.9 - 0.0
28/05:00am 4.5 1.1 4.2 98 0.1 E 11 15 6 8 1027.5 1027.7 0.0
28/04:30am 3.7 0.6 3.4 98 0.1 E 9 11 5 6 1027.3 - 0.0
28/04:00am 3.9 0.8 3.6 98 0.1 ESE 9 11 5 6 1027.3 1027.5 0.0
28/03:30am 4.7 2.4 4.6 99 0.0 E 6 7 3 4 1027.2 - 0.0
28/03:00am 4.3 1.7 4.2 99 0.0 E 7 9 4 5 1027.1 1027.3 0.0
28/02:30am 4.2 1.6 4.1 99 0.0 E 7 9 4 5 1027.1 - 0.0
28/02:00am 4.8 2.3 4.7 99 0.0 E 7 9 4 5 1027.1 1027.3 0.0
28/01:30am 4.9 2.6 4.6 98 0.1 E 6 9 3 5 1027.1 - 0.0
28/01:00am 5.0 2.1 4.7 98 0.1 ESE 9 11 5 6 1027.0 1027.2 0.0
28/12:30am 4.5 2.5 4.2 98 0.1 SE 4 6 2 3 1026.9 - 0.0
28/12:00am 5.3 2.5 5.0 98 0.1 SE 9 13 5 7 1026.9 1027.1 0.0
 
Date/Time
EST
Temp
°C
App
Temp
°C
Dew
Point
Rel
Hum
%
Delta-T
°C
Wind Press
QNH
hPa
Press
MSL
hPa
Rain
since 9 am
mm
Dir
 
Spd
km/h
Gust
km/h
Spd
kts
Gust
kts
27/11:30pm 5.6 3.4 5.3 98 0.1 W 6 7 3 4 1026.7 - 0.0
27/11:00pm 6.8 6.0 6.5 98 0.1 CALM 0 0 0 0 1026.8 1027.0 0.0
27/10:30pm 6.8 5.2 6.5 98 0.1 NNE 4 4 2 2 1026.7 - 0.0
27/10:00pm 6.1 4.8 5.8 98 0.1 SW 2 4 1 2 1026.6 1026.8 0.0
27/09:30pm 7.8 7.2 7.4 97 0.2 CALM 0 0 0 0 1026.6 - 0.0
27/09:00pm 8.8 7.6 8.0 95 0.4 WNW 4 6 2 3 1026.5 1026.7 0.0
27/08:30pm 7.9 7.1 6.5 91 0.6 CALM 0 0 0 0 1026.4 - 0.0

Other Formats:

Comma delimited format used in spreadsheet applications
http://www.bom.gov.au/fwo/IDN60801/IDN60801.94862.axf

JavaScript Object Notation format (JSON) in row-major order
http://www.bom.gov.au/fwo/IDN60801/IDN60801.94862.json